sensor_id;sensor_type;location;lat;lon;timestamp;P1;durP1;ratioP1;P2;durP2;ratioP2
67712;SDS011;67640;55.784;49.138;2023-02-23T00:02:01;11.97;;;3.47;;
67712;SDS011;67640;55.784;49.138;2023-02-23T00:07:07;12.18;;;3.55;;
67712;SDS011;67640;55.784;49.138;2023-02-23T00:12:12;12.07;;;4.58;;
67712;SDS011;67640;55.784;49.138;2023-02-23T00:17:31;14.30;;;4.03;;
67712;SDS011;67640;55.784;49.138;2023-02-23T00:28:29;11.68;;;3.40;;
67712;SDS011;67640;55.784;49.138;2023-02-23T00:33:39;13.90;;;4.53;;
67712;SDS011;67640;55.784;49.138;2023-02-23T00:38:58;12.50;;;3.67;;
67712;SDS011;67640;55.784;49.138;2023-02-23T00:44:04;10.28;;;3.87;;
67712;SDS011;67640;55.784;49.138;2023-02-23T00:49:10;9.58;;;3.55;;
67712;SDS011;67640;55.784;49.138;2023-02-23T00:54:29;22.63;;;4.40;;
67712;SDS011;67640;55.784;49.138;2023-02-23T00:59:48;16.17;;;3.95;;
67712;SDS011;67640;55.784;49.138;2023-02-23T01:05:08;14.17;;;4.13;;
67712;SDS011;67640;55.784;49.138;2023-02-23T01:10:27;13.72;;;3.83;;
67712;SDS011;67640;55.784;49.138;2023-02-23T01:15:33;11.48;;;3.87;;
67712;SDS011;67640;55.784;49.138;2023-02-23T01:20:38;13.13;;;3.90;;
67712;SDS011;67640;55.784;49.138;2023-02-23T01:25:55;18.85;;;5.08;;
67712;SDS011;67640;55.784;49.138;2023-02-23T01:31:00;11.48;;;3.55;;
67712;SDS011;67640;55.784;49.138;2023-02-23T01:36:19;14.73;;;4.37;;
67712;SDS011;67640;55.784;49.138;2023-02-23T01:41:25;22.22;;;5.15;;
67712;SDS011;67640;55.784;49.138;2023-02-23T01:46:45;13.20;;;4.35;;
67712;SDS011;67640;55.784;49.138;2023-02-23T01:57:28;11.93;;;4.00;;
67712;SDS011;67640;55.784;49.138;2023-02-23T02:02:33;10.65;;;3.60;;
67712;SDS011;67640;55.784;49.138;2023-02-23T02:07:38;11.63;;;3.17;;
67712;SDS011;67640;55.784;49.138;2023-02-23T02:12:59;14.05;;;3.80;;
67712;SDS011;67640;55.784;49.138;2023-02-23T02:29:26;12.88;;;3.65;;
67712;SDS011;67640;55.784;49.138;2023-02-23T02:56:26;9.40;;;3.13;;
67712;SDS011;67640;55.784;49.138;2023-02-23T03:01:45;18.30;;;4.05;;
67712;SDS011;67640;55.784;49.138;2023-02-23T03:07:13;9.27;;;3.63;;
67712;SDS011;67640;55.784;49.138;2023-02-23T03:12:38;12.63;;;3.87;;
67712;SDS011;67640;55.784;49.138;2023-02-23T03:29:32;10.75;;;3.08;;
67712;SDS011;67640;55.784;49.138;2023-02-23T03:35:30;9.00;;;2.67;;
67712;SDS011;67640;55.784;49.138;2023-02-23T03:46:08;6.97;;;2.77;;
67712;SDS011;67640;55.784;49.138;2023-02-23T03:51:34;12.17;;;3.53;;
67712;SDS011;67640;55.784;49.138;2023-02-23T03:57:00;7.53;;;2.75;;
67712;SDS011;67640;55.784;49.138;2023-02-23T04:02:26;12.17;;;3.23;;
67712;SDS011;67640;55.784;49.138;2023-02-23T04:07:52;7.55;;;2.33;;
67712;SDS011;67640;55.784;49.138;2023-02-23T04:13:18;6.53;;;2.42;;
67712;SDS011;67640;55.784;49.138;2023-02-23T04:18:24;8.20;;;2.67;;
67712;SDS011;67640;55.784;49.138;2023-02-23T04:23:31;10.65;;;3.40;;
67712;SDS011;67640;55.784;49.138;2023-02-23T04:28:36;9.17;;;2.40;;
67712;SDS011;67640;55.784;49.138;2023-02-23T04:33:40;7.65;;;2.70;;
67712;SDS011;67640;55.784;49.138;2023-02-23T04:38:58;8.33;;;2.65;;
67712;SDS011;67640;55.784;49.138;2023-02-23T04:44:02;10.98;;;3.12;;
67712;SDS011;67640;55.784;49.138;2023-02-23T04:49:08;9.23;;;2.85;;
67712;SDS011;67640;55.784;49.138;2023-02-23T04:54:25;9.95;;;3.27;;
67712;SDS011;67640;55.784;49.138;2023-02-23T04:59:30;5.83;;;2.05;;
67712;SDS011;67640;55.784;49.138;2023-02-23T05:04:50;13.67;;;3.40;;
67712;SDS011;67640;55.784;49.138;2023-02-23T05:10:00;9.58;;;3.05;;
67712;SDS011;67640;55.784;49.138;2023-02-23T05:15:21;8.37;;;2.83;;
67712;SDS011;67640;55.784;49.138;2023-02-23T05:26:06;7.70;;;2.62;;
67712;SDS011;67640;55.784;49.138;2023-02-23T05:31:26;9.70;;;2.67;;
67712;SDS011;67640;55.784;49.138;2023-02-23T05:36:31;8.35;;;2.58;;
67712;SDS011;67640;55.784;49.138;2023-02-23T05:41:50;10.57;;;3.77;;
67712;SDS011;67640;55.784;49.138;2023-02-23T05:46:55;9.63;;;2.90;;
67712;SDS011;67640;55.784;49.138;2023-02-23T05:52:12;8.73;;;3.25;;
67712;SDS011;67640;55.784;49.138;2023-02-23T05:57:18;11.75;;;3.42;;
67712;SDS011;67640;55.784;49.138;2023-02-23T06:02:23;12.50;;;2.98;;
67712;SDS011;67640;55.784;49.138;2023-02-23T06:07:29;9.83;;;2.62;;
67712;SDS011;67640;55.784;49.138;2023-02-23T06:12:46;7.62;;;2.98;;
67712;SDS011;67640;55.784;49.138;2023-02-23T06:17:51;9.53;;;3.20;;
67712;SDS011;67640;55.784;49.138;2023-02-23T06:22:57;10.82;;;2.80;;
67712;SDS011;67640;55.784;49.138;2023-02-23T06:28:14;9.13;;;2.87;;
67712;SDS011;67640;55.784;49.138;2023-02-23T06:33:19;7.83;;;2.77;;
67712;SDS011;67640;55.784;49.138;2023-02-23T06:38:39;9.43;;;2.93;;
67712;SDS011;67640;55.784;49.138;2023-02-23T06:43:44;10.20;;;3.27;;
67712;SDS011;67640;55.784;49.138;2023-02-23T06:49:04;12.27;;;3.50;;
67712;SDS011;67640;55.784;49.138;2023-02-23T06:54:23;6.37;;;2.37;;
67712;SDS011;67640;55.784;49.138;2023-02-23T06:59:28;7.45;;;2.15;;
67712;SDS011;67640;55.784;49.138;2023-02-23T07:04:47;11.90;;;3.03;;
67712;SDS011;67640;55.784;49.138;2023-02-23T07:09:53;12.18;;;3.27;;
67712;SDS011;67640;55.784;49.138;2023-02-23T07:15:11;8.60;;;2.30;;
67712;SDS011;67640;55.784;49.138;2023-02-23T07:20:17;9.40;;;2.57;;
67712;SDS011;67640;55.784;49.138;2023-02-23T07:25:36;9.55;;;3.42;;
67712;SDS011;67640;55.784;49.138;2023-02-23T07:30:41;8.10;;;2.45;;
67712;SDS011;67640;55.784;49.138;2023-02-23T07:36:00;10.55;;;4.58;;
67712;SDS011;67640;55.784;49.138;2023-02-23T07:41:31;10.43;;;2.75;;
67712;SDS011;67640;55.784;49.138;2023-02-23T07:46:37;15.18;;;3.67;;
67712;SDS011;67640;55.784;49.138;2023-02-23T07:51:43;9.77;;;3.37;;
67712;SDS011;67640;55.784;49.138;2023-02-23T07:57:02;11.70;;;3.87;;
67712;SDS011;67640;55.784;49.138;2023-02-23T08:02:08;12.20;;;3.50;;
67712;SDS011;67640;55.784;49.138;2023-02-23T08:07:26;10.53;;;3.17;;
67712;SDS011;67640;55.784;49.138;2023-02-23T08:12:31;8.83;;;2.90;;
67712;SDS011;67640;55.784;49.138;2023-02-23T08:17:38;9.10;;;3.33;;
67712;SDS011;67640;55.784;49.138;2023-02-23T08:22:56;13.97;;;3.43;;
67712;SDS011;67640;55.784;49.138;2023-02-23T08:28:02;10.05;;;3.25;;
67712;SDS011;67640;55.784;49.138;2023-02-23T08:33:21;8.88;;;2.95;;
67712;SDS011;67640;55.784;49.138;2023-02-23T08:38:40;8.13;;;2.83;;
67712;SDS011;67640;55.784;49.138;2023-02-23T08:43:46;7.72;;;3.08;;
67712;SDS011;67640;55.784;49.138;2023-02-23T08:49:04;7.80;;;2.75;;
67712;SDS011;67640;55.784;49.138;2023-02-23T08:54:09;9.03;;;2.67;;
67712;SDS011;67640;55.784;49.138;2023-02-23T08:59:28;9.38;;;3.10;;
67712;SDS011;67640;55.784;49.138;2023-02-23T09:04:47;9.10;;;3.33;;
67712;SDS011;67640;55.784;49.138;2023-02-23T09:10:07;8.55;;;3.50;;
67712;SDS011;67640;55.784;49.138;2023-02-23T09:15:13;9.58;;;3.85;;
67712;SDS011;67640;55.784;49.138;2023-02-23T09:20:32;8.90;;;3.07;;
67712;SDS011;67640;55.784;49.138;2023-02-23T09:25:39;10.68;;;2.90;;
67712;SDS011;67640;55.784;49.138;2023-02-23T09:30:45;9.83;;;3.30;;
67712;SDS011;67640;55.784;49.138;2023-02-23T09:35:50;13.00;;;3.33;;
67712;SDS011;67640;55.784;49.138;2023-02-23T09:52:05;12.15;;;3.47;;
67712;SDS011;67640;55.784;49.138;2023-02-23T10:02:33;12.90;;;3.72;;
67712;SDS011;67640;55.784;49.138;2023-02-23T10:24:04;19.30;;;5.17;;
67712;SDS011;67640;55.784;49.138;2023-02-23T10:34:29;17.73;;;3.87;;
67712;SDS011;67640;55.784;49.138;2023-02-23T10:39:35;12.95;;;3.47;;
67712;SDS011;67640;55.784;49.138;2023-02-23T10:44:54;16.30;;;4.57;;
67712;SDS011;67640;55.784;49.138;2023-02-23T10:50:14;15.88;;;5.08;;
67712;SDS011;67640;55.784;49.138;2023-02-23T10:55:33;10.53;;;2.95;;
67712;SDS011;67640;55.784;49.138;2023-02-23T11:00:53;10.67;;;3.80;;
67712;SDS011;67640;55.784;49.138;2023-02-23T11:05:59;26.70;;;7.42;;
67712;SDS011;67640;55.784;49.138;2023-02-23T11:16:48;11.25;;;3.85;;
67712;SDS011;67640;55.784;49.138;2023-02-23T11:22:15;10.75;;;3.67;;
67712;SDS011;67640;55.784;49.138;2023-02-23T11:27:28;7.97;;;2.30;;
67712;SDS011;67640;55.784;49.138;2023-02-23T11:43:33;11.20;;;3.47;;
67712;SDS011;67640;55.784;49.138;2023-02-23T11:59:42;8.05;;;2.37;;
67712;SDS011;67640;55.784;49.138;2023-02-23T12:10:41;7.17;;;2.33;;
67712;SDS011;67640;55.784;49.138;2023-02-23T12:15:49;7.37;;;1.87;;
67712;SDS011;67640;55.784;49.138;2023-02-23T12:26:32;10.23;;;2.83;;
67712;SDS011;67640;55.784;49.138;2023-02-23T12:54:15;8.53;;;2.27;;
67712;SDS011;67640;55.784;49.138;2023-02-23T13:32:23;7.87;;;2.08;;
67712;SDS011;67640;55.784;49.138;2023-02-23T13:37:30;6.65;;;2.00;;
67712;SDS011;67640;55.784;49.138;2023-02-23T13:59:06;9.63;;;2.95;;
67712;SDS011;67640;55.784;49.138;2023-02-23T14:15:26;10.72;;;3.12;;
67712;SDS011;67640;55.784;49.138;2023-02-23T14:36:32;10.03;;;3.15;;
67712;SDS011;67640;55.784;49.138;2023-02-23T14:53:00;13.22;;;3.40;;
67712;SDS011;67640;55.784;49.138;2023-02-23T14:58:29;7.35;;;2.65;;
67712;SDS011;67640;55.784;49.138;2023-02-23T15:03:35;9.90;;;2.70;;
67712;SDS011;67640;55.784;49.138;2023-02-23T15:08:41;10.30;;;3.00;;
67712;SDS011;67640;55.784;49.138;2023-02-23T15:14:00;6.90;;;2.83;;
67712;SDS011;67640;55.784;49.138;2023-02-23T15:19:30;13.87;;;3.47;;
67712;SDS011;67640;55.784;49.138;2023-02-23T15:35:26;5.75;;;1.80;;
67712;SDS011;67640;55.784;49.138;2023-02-23T15:40:44;5.97;;;2.33;;
67712;SDS011;67640;55.784;49.138;2023-02-23T15:45:51;5.85;;;2.10;;
67712;SDS011;67640;55.784;49.138;2023-02-23T15:56:53;14.98;;;2.37;;
67712;SDS011;67640;55.784;49.138;2023-02-23T16:13:30;8.10;;;2.40;;
67712;SDS011;67640;55.784;49.138;2023-02-23T16:18:50;6.70;;;1.90;;
67712;SDS011;67640;55.784;49.138;2023-02-23T16:23:55;6.87;;;1.75;;
67712;SDS011;67640;55.784;49.138;2023-02-23T16:29:14;9.20;;;2.70;;
67712;SDS011;67640;55.784;49.138;2023-02-23T16:39:45;4.23;;;1.27;;
67712;SDS011;67640;55.784;49.138;2023-02-23T16:45:05;8.43;;;2.45;;
67712;SDS011;67640;55.784;49.138;2023-02-23T16:50:24;6.53;;;2.53;;
67712;SDS011;67640;55.784;49.138;2023-02-23T16:55:29;4.25;;;1.52;;
67712;SDS011;67640;55.784;49.138;2023-02-23T17:01:17;5.25;;;2.15;;
67712;SDS011;67640;55.784;49.138;2023-02-23T17:06:36;8.07;;;2.37;;
67712;SDS011;67640;55.784;49.138;2023-02-23T17:11:41;8.70;;;2.27;;
67712;SDS011;67640;55.784;49.138;2023-02-23T17:17:21;8.93;;;1.80;;
67712;SDS011;67640;55.784;49.138;2023-02-23T17:22:40;7.90;;;2.83;;
67712;SDS011;67640;55.784;49.138;2023-02-23T17:38:37;7.50;;;2.40;;
67712;SDS011;67640;55.784;49.138;2023-02-23T17:44:03;5.47;;;1.95;;
67712;SDS011;67640;55.784;49.138;2023-02-23T17:49:08;9.97;;;3.30;;
67712;SDS011;67640;55.784;49.138;2023-02-23T17:54:27;10.70;;;2.90;;
67712;SDS011;67640;55.784;49.138;2023-02-23T17:59:33;9.43;;;2.80;;
67712;SDS011;67640;55.784;49.138;2023-02-23T18:04:38;8.53;;;2.63;;
67712;SDS011;67640;55.784;49.138;2023-02-23T18:10:06;6.60;;;2.40;;
67712;SDS011;67640;55.784;49.138;2023-02-23T18:15:12;7.15;;;2.37;;
67712;SDS011;67640;55.784;49.138;2023-02-23T18:20:33;14.60;;;4.03;;
67712;SDS011;67640;55.784;49.138;2023-02-23T18:25:52;20.43;;;5.08;;
67712;SDS011;67640;55.784;49.138;2023-02-23T18:31:12;19.90;;;5.45;;
67712;SDS011;67640;55.784;49.138;2023-02-23T18:36:18;24.03;;;6.60;;
67712;SDS011;67640;55.784;49.138;2023-02-23T18:41:42;29.57;;;8.00;;
67712;SDS011;67640;55.784;49.138;2023-02-23T18:46:47;36.40;;;7.87;;
67712;SDS011;67640;55.784;49.138;2023-02-23T18:52:06;17.25;;;5.15;;
67712;SDS011;67640;55.784;49.138;2023-02-23T18:57:12;12.88;;;4.58;;
67712;SDS011;67640;55.784;49.138;2023-02-23T19:02:35;10.40;;;3.40;;
67712;SDS011;67640;55.784;49.138;2023-02-23T19:07:41;13.65;;;3.60;;
67712;SDS011;67640;55.784;49.138;2023-02-23T19:13:00;15.20;;;3.30;;
67712;SDS011;67640;55.784;49.138;2023-02-23T19:18:19;16.57;;;4.95;;
67712;SDS011;67640;55.784;49.138;2023-02-23T19:23:38;13.30;;;4.40;;
67712;SDS011;67640;55.784;49.138;2023-02-23T19:28:58;13.83;;;3.75;;
67712;SDS011;67640;55.784;49.138;2023-02-23T19:34:08;14.93;;;4.10;;
67712;SDS011;67640;55.784;49.138;2023-02-23T19:39:13;14.30;;;4.00;;
67712;SDS011;67640;55.784;49.138;2023-02-23T19:44:19;15.75;;;4.65;;
67712;SDS011;67640;55.784;49.138;2023-02-23T19:49:37;15.50;;;3.60;;
67712;SDS011;67640;55.784;49.138;2023-02-23T19:54:42;12.57;;;3.80;;
67712;SDS011;67640;55.784;49.138;2023-02-23T20:10:32;9.90;;;3.13;;
67712;SDS011;67640;55.784;49.138;2023-02-23T20:15:37;11.03;;;3.05;;
67712;SDS011;67640;55.784;49.138;2023-02-23T20:20:42;10.75;;;4.03;;
67712;SDS011;67640;55.784;49.138;2023-02-23T20:32:15;10.48;;;2.83;;
67712;SDS011;67640;55.784;49.138;2023-02-23T20:37:05;17.30;;;4.03;;
67712;SDS011;67640;55.784;49.138;2023-02-23T20:42:10;15.20;;;3.77;;
67712;SDS011;67640;55.784;49.138;2023-02-23T20:47:29;14.20;;;4.10;;
67712;SDS011;67640;55.784;49.138;2023-02-23T20:57:57;12.90;;;4.20;;
67712;SDS011;67640;55.784;49.138;2023-02-23T21:03:02;18.27;;;4.40;;
67712;SDS011;67640;55.784;49.138;2023-02-23T21:08:21;16.73;;;4.53;;
67712;SDS011;67640;55.784;49.138;2023-02-23T21:13:53;12.80;;;3.22;;
67712;SDS011;67640;55.784;49.138;2023-02-23T21:18:59;8.13;;;3.12;;
67712;SDS011;67640;55.784;49.138;2023-02-23T21:24:24;11.05;;;2.87;;
67712;SDS011;67640;55.784;49.138;2023-02-23T21:29:29;10.63;;;2.97;;
67712;SDS011;67640;55.784;49.138;2023-02-23T21:34:48;11.40;;;3.30;;
67712;SDS011;67640;55.784;49.138;2023-02-23T21:40:09;12.13;;;3.30;;
67712;SDS011;67640;55.784;49.138;2023-02-23T21:45:14;13.00;;;3.77;;
67712;SDS011;67640;55.784;49.138;2023-02-23T21:50:33;9.55;;;3.17;;
67712;SDS011;67640;55.784;49.138;2023-02-23T21:55:38;8.75;;;2.20;;
67712;SDS011;67640;55.784;49.138;2023-02-23T22:00:43;10.70;;;2.93;;
67712;SDS011;67640;55.784;49.138;2023-02-23T22:06:01;10.23;;;3.25;;
67712;SDS011;67640;55.784;49.138;2023-02-23T22:11:07;8.33;;;2.50;;
67712;SDS011;67640;55.784;49.138;2023-02-23T22:16:14;9.37;;;3.20;;
67712;SDS011;67640;55.784;49.138;2023-02-23T22:21:19;8.90;;;2.52;;
67712;SDS011;67640;55.784;49.138;2023-02-23T22:26:38;10.28;;;3.12;;
67712;SDS011;67640;55.784;49.138;2023-02-23T22:31:43;13.67;;;3.77;;
67712;SDS011;67640;55.784;49.138;2023-02-23T22:37:02;12.05;;;3.15;;
67712;SDS011;67640;55.784;49.138;2023-02-23T22:42:21;11.40;;;3.98;;
67712;SDS011;67640;55.784;49.138;2023-02-23T22:47:40;13.23;;;4.57;;
67712;SDS011;67640;55.784;49.138;2023-02-23T22:52:59;15.83;;;5.10;;
67712;SDS011;67640;55.784;49.138;2023-02-23T22:58:04;21.13;;;6.23;;
67712;SDS011;67640;55.784;49.138;2023-02-23T23:03:09;19.25;;;5.17;;
67712;SDS011;67640;55.784;49.138;2023-02-23T23:14:08;15.60;;;4.40;;
67712;SDS011;67640;55.784;49.138;2023-02-23T23:19:30;12.07;;;4.12;;
67712;SDS011;67640;55.784;49.138;2023-02-23T23:24:36;16.80;;;4.03;;
67712;SDS011;67640;55.784;49.138;2023-02-23T23:29:41;9.35;;;3.37;;
67712;SDS011;67640;55.784;49.138;2023-02-23T23:35:00;16.15;;;4.35;;
67712;SDS011;67640;55.784;49.138;2023-02-23T23:40:08;11.77;;;4.07;;
67712;SDS011;67640;55.784;49.138;2023-02-23T23:45:33;16.67;;;4.80;;
67712;SDS011;67640;55.784;49.138;2023-02-23T23:51:04;9.93;;;3.87;;
67712;SDS011;67640;55.784;49.138;2023-02-23T23:56:10;9.50;;;3.17;;
